»·PEaware :: N3817Q KSBP-KLAX

N3817Q :: KSBP-KLAX

FLIGHT INFORMATION

Flight Status: Arrived
Operator: Privately registered:
United States
More flights under this callsign
Pilot: Henry M. (22485)
Aircraft: CESSNA 172 SKYHAWK
(C172)
More flights by this aircraft type
Origin: KSBP San Luis Co Regl
United States
Destination: KLAX Los Angeles Intl
United States
More flights between these airports :: More routes between these airports
Route: +RZS SADDE8
File this flight plan on PilotEdge
Remarks:
Altitude:
(Current/Filed)
9,000ft
Speed:
(Current/Filed)
110kts
Departed: 09-Feb-19 09:33 AM
Arrived: 09-Feb-19 11:11 AM
Distance/Time
Traveled:
135nm/1:38
Distance/Time
To Go:
Arrived

Flight Plot

Page will automatically refresh every two minutes.

Flight plan parsing failed; only flown route is shown


Map Options




Map Legend


Flown Route
Filed Route
Departure Airport
Arrival Airport
Navaid (VOR, NDB)
Fix

Horizontal Profiles

Position Reports

Time Latitude Longitude Heading Altitude Ground
Speed
09-Feb-19 09:05 35.238271 -120.638660 270 215ft 0kts
09-Feb-19 09:06 35.238271 -120.638666 270 215ft 0kts
09-Feb-19 09:07 35.238271 -120.638673 270 215ft 0kts
09-Feb-19 09:08 35.238271 -120.638679 270 215ft 0kts
09-Feb-19 09:09 35.238271 -120.638686 270 215ft 0kts
09-Feb-19 09:10 35.238271 -120.638693 270 215ft 0kts
09-Feb-19 09:11 35.238271 -120.638699 270 215ft 0kts
09-Feb-19 09:12 35.238271 -120.638706 270 215ft 0kts
09-Feb-19 09:13 35.238271 -120.638713 270 215ft 0kts
09-Feb-19 09:14 35.238271 -120.638719 270 215ft 0kts
09-Feb-19 09:15 35.238271 -120.638726 270 215ft 0kts
09-Feb-19 09:16 35.238271 -120.638732 270 215ft 0kts
09-Feb-19 09:17 35.238271 -120.638733 270 215ft 0kts
09-Feb-19 09:18 35.238271 -120.638734 270 215ft 0kts
09-Feb-19 09:19 35.238272 -120.638740 270 215ft 0kts
09-Feb-19 09:21 35.238272 -120.638746 270 215ft 0kts
09-Feb-19 09:22 35.238272 -120.638753 270 215ft 0kts
09-Feb-19 09:23 35.238272 -120.638759 270 215ft 0kts
09-Feb-19 09:24 35.238272 -120.638765 270 215ft 0kts
09-Feb-19 09:25 35.238272 -120.638772 270 215ft 0kts
09-Feb-19 09:26 35.238272 -120.638778 270 215ft 0kts
09-Feb-19 09:27 35.238272 -120.638785 270 215ft 0kts
09-Feb-19 09:28 35.237423 -120.639021 166 215ft 10kts
09-Feb-19 09:29 35.234801 -120.634670 124 215ft 19kts
09-Feb-19 09:30 35.233352 -120.632583 220 215ft 0kts
09-Feb-19 09:31 35.233348 -120.632588 220 215ft 0kts
09-Feb-19 09:32 35.233345 -120.632591 220 215ft 0kts
09-Feb-19 09:33 35.239067 -120.644137 300 441ft 83kts
09-Feb-19 09:34 35.251511 -120.670929 302 1174ft 99kts
09-Feb-19 09:35 35.267517 -120.698644 303 1869ft 99kts
09-Feb-19 09:35 35.280809 -120.721121 302 2453ft 95kts
09-Feb-19 09:45 35.406428 -120.921897 302 6997ft 94kts
09-Feb-19 09:45 35.415401 -120.942427 260 6975ft 96kts
09-Feb-19 09:46 35.391477 -120.936034 123 6999ft 128kts
09-Feb-19 09:47 35.368678 -120.902786 136 6995ft 128kts
09-Feb-19 09:48 35.344630 -120.870578 136 6995ft 128kts
09-Feb-19 09:49 35.320584 -120.838391 137 6996ft 128kts
09-Feb-19 09:50 35.296797 -120.806608 137 6995ft 125kts
09-Feb-19 09:51 35.273153 -120.775068 137 7005ft 128kts
09-Feb-19 09:52 35.248707 -120.742454 137 7003ft 130kts
09-Feb-19 09:53 35.224105 -120.709657 137 7002ft 130kts
09-Feb-19 09:54 35.199410 -120.676781 137 7003ft 130kts
09-Feb-19 09:55 35.176283 -120.646073 137 6444ft 162kts
09-Feb-19 09:56 35.153367 -120.615840 138 7002ft 122kts
09-Feb-19 09:57 35.128789 -120.583148 136 6999ft 132kts
09-Feb-19 09:58 35.106354 -120.553177 137 7006ft 131kts
09-Feb-19 09:59 35.081568 -120.520335 137 7008ft 131kts
09-Feb-19 10:00 35.056689 -120.487342 137 7011ft 132kts
09-Feb-19 10:01 35.031628 -120.454317 137 7011ft 133kts
09-Feb-19 10:02 35.006675 -120.421311 137 7024ft 132kts
09-Feb-19 10:03 34.983981 -120.391313 137 7020ft 132kts
09-Feb-19 10:04 34.965202 -120.366547 137 7020ft 132kts
09-Feb-19 10:05 34.940182 -120.333572 137 7021ft 132kts
09-Feb-19 10:06 34.915136 -120.300599 135 7006ft 132kts
09-Feb-19 10:07 34.890173 -120.267757 135 6998ft 131kts
09-Feb-19 10:08 34.865360 -120.235079 136 7004ft 131kts
09-Feb-19 10:09 34.840294 -120.202260 135 7003ft 132kts
09-Feb-19 10:10 34.817587 -120.172442 136 6997ft 131kts
09-Feb-19 10:11 34.792633 -120.139802 135 7005ft 133kts
09-Feb-19 10:12 34.766407 -120.105362 136 6995ft 138kts
09-Feb-19 10:13 34.740950 -120.072121 136 6993ft 132kts
09-Feb-19 10:14 34.715819 -120.039289 136 6992ft 132kts
09-Feb-19 10:15 34.690732 -120.006557 136 6992ft 132kts
09-Feb-19 10:16 34.665859 -119.974109 137 6993ft 131kts
09-Feb-19 10:17 34.643322 -119.944743 137 6993ft 131kts
09-Feb-19 10:18 34.618245 -119.912095 137 6992ft 132kts
09-Feb-19 10:19 34.593095 -119.879385 137 6999ft 132kts
09-Feb-19 10:20 34.567972 -119.846744 137 6998ft 132kts
09-Feb-19 10:21 34.542803 -119.814058 137 7001ft 132kts
09-Feb-19 10:22 34.517509 -119.781277 137 7000ft 133kts
09-Feb-19 10:23 34.495530 -119.744965 126 7002ft 133kts
09-Feb-19 10:24 34.475059 -119.707282 126 7000ft 133kts
09-Feb-19 10:25 34.454608 -119.669583 126 7001ft 133kts
09-Feb-19 10:26 34.434169 -119.631963 126 7000ft 133kts
09-Feb-19 10:27 34.413708 -119.594315 126 7000ft 134kts
09-Feb-19 10:28 34.393241 -119.556707 126 7000ft 133kts
09-Feb-19 10:29 34.374624 -119.522533 126 7001ft 133kts
09-Feb-19 10:30 34.354082 -119.484864 126 7003ft 133kts
09-Feb-19 10:31 34.335622 -119.451042 126 7001ft 133kts
09-Feb-19 10:32 34.315166 -119.413608 126 7004ft 133kts
09-Feb-19 10:33 34.294670 -119.376137 126 7007ft 133kts
09-Feb-19 10:34 34.274084 -119.338533 127 7010ft 133kts
09-Feb-19 10:35 34.253568 -119.301090 126 7013ft 133kts
09-Feb-19 10:36 34.233041 -119.263754 126 7013ft 133kts
09-Feb-19 10:37 34.214593 -119.230112 127 7014ft 133kts
09-Feb-19 10:38 34.194000 -119.192657 127 7015ft 133kts
09-Feb-19 10:39 34.173491 -119.155391 127 7017ft 133kts
09-Feb-19 10:40 34.152934 -119.118079 127 7021ft 133kts
09-Feb-19 10:41 34.132388 -119.080819 127 7023ft 133kts
09-Feb-19 10:42 34.113172 -119.042789 107 7025ft 134kts
09-Feb-19 10:43 34.101845 -118.999616 109 7024ft 135kts
09-Feb-19 10:44 34.090283 -118.956247 109 7005ft 136kts
09-Feb-19 10:45 34.078713 -118.912932 109 6996ft 135kts
09-Feb-19 10:46 34.067158 -118.869679 110 6990ft 135kts
09-Feb-19 10:47 34.055558 -118.826330 110 6990ft 135kts
09-Feb-19 10:48 34.045064 -118.787165 110 6989ft 135kts
09-Feb-19 10:49 34.037038 -118.742811 96 6998ft 136kts
09-Feb-19 10:50 34.032787 -118.697208 97 6999ft 137kts
09-Feb-19 10:51 34.028528 -118.651389 97 7000ft 137kts
09-Feb-19 10:52 34.024259 -118.605635 97 7000ft 137kts
09-Feb-19 10:53 34.019963 -118.559665 97 7001ft 138kts
09-Feb-19 10:54 34.015746 -118.514914 97 7002ft 138kts
09-Feb-19 10:55 34.011798 -118.473062 97 7000ft 137kts
09-Feb-19 10:56 34.013380 -118.426000 81 6522ft 144kts
09-Feb-19 10:57 34.017681 -118.378570 83 5813ft 139kts
09-Feb-19 10:58 34.021627 -118.332488 82 5145ft 137kts
09-Feb-19 10:59 34.025583 -118.286145 82 4922ft 147kts
09-Feb-19 11:00 34.029333 -118.243628 82 4834ft 141kts
09-Feb-19 11:01 34.020192 -118.206516 161 4829ft 122kts
09-Feb-19 11:02 33.988281 -118.190366 161 4284ft 120kts
09-Feb-19 11:03 33.958644 -118.179435 202 4006ft 98kts
09-Feb-19 11:04 33.947170 -118.208441 279 3592ft 105kts
09-Feb-19 11:05 33.948706 -118.244284 280 3170ft 103kts
09-Feb-19 11:06 33.948151 -118.277819 264 2523ft 97kts
09-Feb-19 11:07 33.945062 -118.310386 264 1573ft 96kts
09-Feb-19 11:08 33.941922 -118.342884 261 872ft 100kts
09-Feb-19 11:09 33.938070 -118.374997 263 384ft 81kts
09-Feb-19 11:10 33.936276 -118.391193 146 129ft 0kts
09-Feb-19 11:11 33.935253 -118.391246 258 129ft 18kts
09-Feb-19 11:12 33.934641 -118.396993 263 129ft 21kts
09-Feb-19 11:13 33.933756 -118.402011 172 129ft 11kts
09-Feb-19 11:14 33.933641 -118.401988 173 129ft 0kts

Navigation Log

Ident Type
Flight plan parsing failed, navigation log unavailable